Time;durP1;ratioP1;P1;durP2;ratioP2;P2;SDS_P1;SDS_P2;PMS_P1;PMS_P2;Temp;Humidity;BMP_temperature;BMP_pressure;BME280_temperature;BME280_humidity;BME280_pressure;Samples;Min_cycle;Max_cycle;Signal;HPM_P1;HPM_P2
2021/11/11 00:00:14;;;;;;;35.28;13.27;;;11.70;99.90;;;;;;5091679;28;20032;-70
2021/11/11 00:02:41;;;;;;;25.25;11.60;;;11.70;99.90;;;;;;5091619;28;20147;-68
2021/11/11 00:05:07;;;;;;;27.42;11.07;;;11.80;99.90;;;;;;5091852;28;20462;-66
2021/11/11 00:07:33;;;;;;;30.77;11.00;;;11.70;99.90;;;;;;5092841;28;20028;-69
2021/11/11 00:10:00;;;;;;;25.85;10.88;;;11.70;99.90;;;;;;5092868;28;20202;-70
2021/11/11 00:12:26;;;;;;;34.75;11.57;;;11.70;99.90;;;;;;5074708;28;20035;-69
2021/11/11 00:14:53;;;;;;;26.67;10.77;;;11.70;99.90;;;;;;5058197;28;20024;-66
2021/11/11 00:17:19;;;;;;;32.42;13.18;;;11.70;99.90;;;;;;5058084;28;20062;-66
2021/11/11 00:19:44;;;;;;;33.15;12.52;;;11.70;99.90;;;;;;5091943;28;20024;-69
2021/11/11 00:22:11;;;;;;;26.75;10.63;;;11.70;99.90;;;;;;5091636;28;20360;-68
2021/11/11 00:24:36;;;;;;;36.60;12.40;;;11.70;99.90;;;;;;5076315;28;20478;-73
2021/11/11 00:27:02;;;;;;;29.20;11.52;;;11.70;99.90;;;;;;5097126;28;20043;-75
2021/11/11 00:29:28;;;;;;;23.40;10.55;;;11.60;99.90;;;;;;5078914;28;20020;-72
2021/11/11 00:31:54;;;;;;;20.20;11.07;;;11.50;99.90;;;;;;5097534;28;20401;-74
2021/11/11 00:34:19;;;;;;;25.58;11.93;;;11.40;99.90;;;;;;5095677;28;20035;-73
2021/11/11 00:36:45;;;;;;;34.65;11.75;;;11.40;99.90;;;;;;5095850;28;20035;-73
2021/11/11 00:39:10;;;;;;;28.30;11.82;;;11.40;99.90;;;;;;5097012;28;20081;-73
2021/11/11 00:41:36;;;;;;;30.17;10.52;;;11.30;99.90;;;;;;5079497;28;20032;-74
2021/11/11 00:44:02;;;;;;;31.95;10.82;;;11.30;99.90;;;;;;5097488;28;20394;-72
2021/11/11 00:46:28;;;;;;;26.75;11.63;;;11.20;99.90;;;;;;5062522;28;20056;-74
2021/11/11 00:48:53;;;;;;;30.10;11.07;;;11.20;99.90;;;;;;5080870;28;20434;-74
2021/11/11 00:51:19;;;;;;;24.08;11.65;;;11.20;99.90;;;;;;5064292;28;20119;-74
2021/11/11 00:53:44;;;;;;;27.40;12.32;;;11.20;99.90;;;;;;5085590;28;20035;-74
2021/11/11 00:56:11;;;;;;;23.60;12.02;;;11.20;99.90;;;;;;5079271;28;20028;-72
2021/11/11 00:58:37;;;;;;;26.00;11.48;;;11.20;99.90;;;;;;5078294;28;20028;-72
2021/11/11 01:01:03;;;;;;;21.25;11.48;;;11.20;99.90;;;;;;5096333;28;20031;-73
2021/11/11 01:03:40;;;;;;;25.45;11.63;;;11.20;99.90;;;;;;5078285;28;20207;-72
2021/11/11 01:06:07;;;;;;;26.50;11.60;;;11.20;99.90;;;;;;5095265;28;20451;-72
2021/11/11 01:08:33;;;;;;;27.08;11.55;;;11.20;99.90;;;;;;5096213;28;20032;-73
2021/11/11 01:11:00;;;;;;;28.17;11.27;;;11.20;99.90;;;;;;5095054;28;20329;-73
2021/11/11 01:13:26;;;;;;;22.85;11.82;;;11.20;99.90;;;;;;5077749;28;20383;-65
2021/11/11 01:15:51;;;;;;;24.17;11.43;;;11.30;99.90;;;;;;5094785;28;20032;-67
2021/11/11 01:18:17;;;;;;;26.08;11.77;;;11.30;99.90;;;;;;5094745;28;20024;-67
2021/11/11 01:20:42;;;;;;;26.83;11.65;;;11.30;99.90;;;;;;5077821;28;20038;-67
2021/11/11 01:23:08;;;;;;;29.02;11.38;;;11.30;99.90;;;;;;5077682;28;20027;-66
2021/11/11 01:25:37;;;;;;;23.67;10.27;;;11.30;99.90;;;;;;5094268;28;20052;-66
2021/11/11 01:28:03;;;;;;;25.52;11.32;;;11.30;99.90;;;;;;5094689;28;20107;-66
2021/11/11 01:30:29;;;;;;;25.42;11.63;;;11.30;99.90;;;;;;5094351;28;20386;-67
2021/11/11 01:32:55;;;;;;;24.17;11.07;;;11.30;99.90;;;;;;5077471;28;20024;-67
2021/11/11 01:35:21;;;;;;;27.73;11.38;;;11.30;99.90;;;;;;5077327;28;20043;-67
2021/11/11 01:37:46;;;;;;;33.30;12.43;;;11.30;99.90;;;;;;5076999;28;20035;-67
2021/11/11 01:40:15;;;;;;;26.05;12.07;;;11.30;99.90;;;;;;5060633;28;20028;-69
2021/11/11 01:42:50;;;;;;;25.58;12.25;;;11.40;99.90;;;;;;5077627;28;20142;-67
2021/11/11 01:45:16;;;;;;;32.05;11.93;;;11.40;99.90;;;;;;5077320;28;20122;-74
2021/11/11 01:47:43;;;;;;;27.88;11.45;;;11.50;99.90;;;;;;5095400;28;20028;-72
2021/11/11 01:50:10;;;;;;;27.55;12.38;;;11.40;99.90;;;;;;5094349;28;20106;-72
2021/11/11 01:52:36;;;;;;;20.58;11.25;;;11.50;99.90;;;;;;5077282;28;20031;-72
2021/11/11 01:55:03;;;;;;;23.85;10.90;;;11.50;99.90;;;;;;5060771;28;20023;-72
2021/11/11 01:57:29;;;;;;;33.08;12.20;;;11.50;99.90;;;;;;5077119;28;20028;-73
2021/11/11 01:59:55;;;;;;;23.00;13.35;;;11.60;99.90;;;;;;5060590;28;20165;-73
2021/11/11 02:02:28;;;;;;;24.00;10.50;;;11.50;99.90;;;;;;5095171;28;20491;-74
2021/11/11 02:04:54;;;;;;;24.20;11.48;;;11.50;99.90;;;;;;5093751;28;20154;-74
2021/11/11 02:07:20;;;;;;;28.98;11.07;;;11.50;99.90;;;;;;5093807;28;20024;-73
2021/11/11 02:09:47;;;;;;;26.20;11.60;;;11.50;99.90;;;;;;5076983;28;20078;-73
2021/11/11 02:12:13;;;;;;;26.15;11.63;;;11.50;99.90;;;;;;5094053;28;20466;-74
2021/11/11 02:14:38;;;;;;;19.40;11.32;;;11.60;99.90;;;;;;5093896;28;20466;-71
2021/11/11 02:17:04;;;;;;;25.25;11.10;;;11.50;99.90;;;;;;5093760;28;20028;-73
2021/11/11 02:19:30;;;;;;;26.90;11.35;;;11.60;99.90;;;;;;5093372;28;20090;-71
2021/11/11 02:21:55;;;;;;;23.33;11.50;;;11.60;99.90;;;;;;5093604;28;20421;-72
2021/11/11 02:24:21;;;;;;;17.15;9.90;;;11.60;99.90;;;;;;5094495;28;20044;-72
2021/11/11 02:26:48;;;;;;;21.70;11.82;;;11.60;99.90;;;;;;5093310;28;20414;-72
2021/11/11 02:29:14;;;;;;;26.83;10.73;;;11.60;99.90;;;;;;5093348;28;20020;-72
2021/11/11 02:31:40;;;;;;;23.15;11.35;;;11.60;99.90;;;;;;5093276;28;20123;-72
2021/11/11 02:34:05;;;;;;;21.08;9.88;;;11.60;99.90;;;;;;5093288;28;20016;-72
2021/11/11 02:36:31;;;;;;;27.58;10.38;;;11.60;99.90;;;;;;5093289;28;20028;-71
2021/11/11 02:38:57;;;;;;;24.23;11.02;;;11.60;99.90;;;;;;5094501;28;20024;-75
2021/11/11 02:41:24;;;;;;;20.20;10.88;;;11.70;99.90;;;;;;5093594;28;20043;-72
2021/11/11 02:43:50;;;;;;;30.30;11.73;;;11.70;99.90;;;;;;5093157;28;20505;-66
2021/11/11 02:46:16;;;;;;;23.70;11.18;;;11.70;99.90;;;;;;5093004;28;20032;-64
2021/11/11 02:48:42;;;;;;;29.52;11.90;;;11.70;99.90;;;;;;5093217;28;20056;-67
2021/11/11 02:51:07;;;;;;;27.95;11.00;;;11.70;99.90;;;;;;5076036;28;20074;-67
2021/11/11 02:53:33;;;;;;;21.15;11.52;;;11.60;99.90;;;;;;5075959;28;20023;-67
2021/11/11 02:55:59;;;;;;;24.80;11.25;;;11.60;99.90;;;;;;5075958;28;20122;-68
2021/11/11 02:58:25;;;;;;;32.15;12.18;;;11.70;99.90;;;;;;5092803;28;20069;-70
2021/11/11 03:00:59;;;;;;;27.70;12.30;;;11.60;99.90;;;;;;5092827;28;20020;-71
2021/11/11 03:03:25;;;;;;;24.13;11.00;;;11.60;99.90;;;;;;5093994;28;20378;-69
2021/11/11 03:05:50;;;;;;;21.85;10.73;;;11.60;99.90;;;;;;5075586;28;20118;-69
2021/11/11 03:08:16;;;;;;;23.73;11.38;;;11.70;99.90;;;;;;5092728;28;20103;-69
2021/11/11 03:10:42;;;;;;;28.95;12.10;;;11.70;99.90;;;;;;5092640;28;20372;-68
2021/11/11 03:13:09;;;;;;;23.63;12.25;;;11.60;99.90;;;;;;5075973;28;20103;-68
2021/11/11 03:15:35;;;;;;;25.67;12.80;;;11.60;99.90;;;;;;5093718;28;20050;-69
2021/11/11 03:18:01;;;;;;;21.38;11.32;;;11.70;99.90;;;;;;5092354;28;20097;-70
2021/11/11 03:20:27;;;;;;;21.00;10.50;;;11.60;99.90;;;;;;5093787;28;20487;-68
2021/11/11 03:22:54;;;;;;;21.23;11.23;;;11.60;99.90;;;;;;5075553;28;20058;-69
2021/11/11 03:25:23;;;;;;;21.42;11.50;;;11.60;99.90;;;;;;5092253;28;20040;-68
2021/11/11 03:27:51;;;;;;;22.00;11.90;;;11.60;99.90;;;;;;5075688;28;20470;-69
2021/11/11 03:30:18;;;;;;;23.33;11.77;;;11.50;99.90;;;;;;5075629;28;20016;-72
2021/11/11 03:32:45;;;;;;;23.90;10.68;;;11.40;99.90;;;;;;5075179;28;20039;-72
2021/11/11 03:35:11;;;;;;;29.63;13.18;;;11.30;99.90;;;;;;5092274;28;20430;-70
2021/11/11 03:37:38;;;;;;;28.95;12.40;;;11.20;99.90;;;;;;5092099;28;20024;-72
2021/11/11 03:40:07;;;;;;;25.02;13.02;;;11.10;99.90;;;;;;5093611;28;20111;-72
2021/11/11 03:42:33;;;;;;;23.80;11.77;;;11.00;99.90;;;;;;5092241;28;20032;-72
2021/11/11 03:44:59;;;;;;;27.25;11.60;;;11.10;99.90;;;;;;5075384;28;20426;-72
2021/11/11 03:47:25;;;;;;;27.40;12.73;;;11.10;99.90;;;;;;5092151;28;20040;-72
2021/11/11 03:49:51;;;;;;;26.20;11.75;;;11.10;99.90;;;;;;5093303;28;20024;-72
2021/11/11 03:52:16;;;;;;;29.52;11.52;;;11.20;99.90;;;;;;5093219;28;20073;-73
2021/11/11 03:54:42;;;;;;;26.90;13.85;;;11.20;99.90;;;;;;5093102;28;20383;-71
2021/11/11 03:57:08;;;;;;;18.50;11.75;;;11.30;99.90;;;;;;5075256;28;20107;-71
2021/11/11 03:59:36;;;;;;;22.52;11.80;;;11.20;99.90;;;;;;5074863;28;20111;-69
2021/11/11 04:02:03;;;;;;;25.30;12.93;;;11.20;99.90;;;;;;5075281;28;20039;-69
2021/11/11 04:04:28;;;;;;;29.05;13.63;;;11.20;99.90;;;;;;5091860;28;20024;-69
2021/11/11 04:06:54;;;;;;;24.75;12.30;;;11.20;99.90;;;;;;5093207;28;20075;-68
2021/11/11 04:09:19;;;;;;;25.58;12.88;;;11.30;99.90;;;;;;5091630;28;20038;-68
2021/11/11 04:11:45;;;;;;;25.77;12.50;;;11.30;99.90;;;;;;5091719;28;20153;-70
2021/11/11 04:14:11;;;;;;;22.40;11.63;;;11.30;99.90;;;;;;5091705;28;20052;-70
2021/11/11 04:16:36;;;;;;;29.88;13.57;;;11.30;99.90;;;;;;5091477;28;20119;-69
2021/11/11 04:19:04;;;;;;;27.27;13.15;;;11.30;99.90;;;;;;5091543;28;20081;-68
2021/11/11 04:21:30;;;;;;;23.80;12.07;;;11.30;99.90;;;;;;5074700;28;20508;-69
2021/11/11 04:23:55;;;;;;;25.92;12.65;;;11.40;99.90;;;;;;5092889;28;20028;-70
2021/11/11 04:26:34;;;;;;;30.85;13.25;;;11.40;99.90;;;;;;5092785;28;20041;-69
2021/11/11 04:29:15;;;;;;;31.55;14.55;;;11.40;99.90;;;;;;5091782;28;20033;-68
2021/11/11 04:31:47;;;;;;;29.27;13.48;;;11.40;99.90;;;;;;5076864;28;20099;-70
2021/11/11 04:34:15;;;;;;;25.38;13.77;;;11.40;99.90;;;;;;5075510;28;20028;-69
2021/11/11 04:42:31;;;;;;;24.45;13.55;;;11.40;99.90;;;;;;5092093;28;20038;-73
2021/11/11 04:50:46;;;;;;;30.63;14.05;;;11.40;99.90;;;;;;5104949;28;20036;-72
2021/11/11 05:01:25;;;;;;;25.58;14.25;;;11.30;99.90;;;;;;5093022;28;20536;-74
2021/11/11 05:03:51;;;;;;;27.52;13.73;;;11.30;99.90;;;;;;5075131;28;20486;-72
2021/11/11 05:06:17;;;;;;;31.50;14.18;;;11.30;99.90;;;;;;5074378;28;20032;-72
2021/11/11 05:08:43;;;;;;;32.15;14.57;;;11.40;99.90;;;;;;5074452;28;20082;-73
2021/11/11 05:11:09;;;;;;;27.88;15.30;;;11.40;99.90;;;;;;5092079;28;20039;-73
2021/11/11 05:13:36;;;;;;;30.42;13.85;;;11.40;99.90;;;;;;5096221;28;20028;-70
2021/11/11 05:16:02;;;;;;;25.92;13.05;;;11.40;99.90;;;;;;5094909;28;20028;-69
2021/11/11 05:18:27;;;;;;;26.17;13.18;;;11.40;99.90;;;;;;5094797;28;20383;-68
2021/11/11 05:20:53;;;;;;;30.25;14.20;;;11.40;99.90;;;;;;5094617;28;20032;-66
2021/11/11 05:23:19;;;;;;;34.10;13.18;;;11.40;99.90;;;;;;5061084;28;20032;-68
2021/11/11 05:25:45;;;;;;;27.13;13.80;;;11.40;99.90;;;;;;5094332;28;20069;-68
2021/11/11 05:28:11;;;;;;;30.80;13.85;;;11.30;99.90;;;;;;5078016;28;20024;-68
2021/11/11 05:30:37;;;;;;;24.42;12.25;;;11.30;99.90;;;;;;5094658;28;20024;-68
2021/11/11 05:33:02;;;;;;;25.10;12.85;;;11.20;99.90;;;;;;5094761;28;20502;-69
2021/11/11 05:35:28;;;;;;;22.60;11.10;;;11.20;99.90;;;;;;5095877;28;20024;-65
2021/11/11 05:37:54;;;;;;;23.02;11.85;;;11.10;99.90;;;;;;5095976;28;20032;-65
2021/11/11 05:40:21;;;;;;;30.02;13.68;;;11.20;99.90;;;;;;5094361;28;20060;-67
2021/11/11 05:42:47;;;;;;;29.95;11.90;;;11.20;99.90;;;;;;5077897;28;20029;-67
2021/11/11 05:45:15;;;;;;;27.65;12.65;;;11.20;99.90;;;;;;5077196;28;20035;-69
2021/11/11 05:47:41;;;;;;;36.47;12.60;;;11.20;99.90;;;;;;5094287;28;20035;-69
2021/11/11 05:50:09;;;;;;;19.38;11.43;;;11.20;99.90;;;;;;5060863;28;20038;-72
2021/11/11 05:52:34;;;;;;;24.30;11.25;;;11.10;99.90;;;;;;5077241;28;20016;-72
2021/11/11 05:55:00;;;;;;;20.05;10.60;;;11.20;99.90;;;;;;5094101;28;20035;-72
2021/11/11 05:57:26;;;;;;;27.08;12.43;;;11.20;99.90;;;;;;5077212;28;20097;-71
2021/11/11 05:59:51;;;;;;;24.10;12.38;;;11.20;99.90;;;;;;5094272;28;20020;-71
2021/11/11 06:02:17;;;;;;;23.23;12.35;;;11.20;99.90;;;;;;5093927;28;20024;-72
2021/11/11 06:04:43;;;;;;;25.80;11.57;;;11.20;99.90;;;;;;5093785;28;20034;-72
2021/11/11 06:07:09;;;;;;;26.50;12.75;;;11.30;99.90;;;;;;5076978;28;20032;-69
2021/11/11 06:09:37;;;;;;;27.15;12.80;;;11.30;99.90;;;;;;5093858;28;20098;-70
2021/11/11 06:12:03;;;;;;;24.52;11.45;;;11.40;99.90;;;;;;5076887;28;20430;-72
2021/11/11 06:14:29;;;;;;;25.33;12.77;;;11.50;99.90;;;;;;5076699;28;20089;-70
2021/11/11 06:16:54;;;;;;;23.80;13.00;;;11.50;99.90;;;;;;5076821;28;20432;-73
2021/11/11 06:19:20;;;;;;;20.63;11.88;;;11.40;99.90;;;;;;5093699;28;20514;-71
2021/11/11 06:21:46;;;;;;;24.67;11.52;;;11.40;99.90;;;;;;5059929;28;20387;-68
2021/11/11 06:24:13;;;;;;;26.08;12.57;;;11.40;99.90;;;;;;5059904;28;20044;-66
2021/11/11 06:26:41;;;;;;;23.67;12.25;;;11.30;99.90;;;;;;5076963;28;20036;-71
2021/11/11 06:29:07;;;;;;;25.83;11.93;;;11.30;99.90;;;;;;5093617;28;20024;-67
2021/11/11 06:31:33;;;;;;;22.48;13.00;;;11.30;99.90;;;;;;5093400;28;20509;-65
2021/11/11 06:33:59;;;;;;;27.70;13.10;;;11.30;99.90;;;;;;5076363;28;20020;-70
2021/11/11 06:36:24;;;;;;;23.05;12.73;;;11.30;99.90;;;;;;5076503;28;20025;-71
2021/11/11 06:38:51;;;;;;;26.55;12.88;;;11.20;99.90;;;;;;5076453;28;20081;-74
2021/11/11 06:41:16;;;;;;;19.27;10.88;;;11.20;99.90;;;;;;5076342;28;20028;-71
2021/11/11 06:43:43;;;;;;;26.30;12.30;;;11.20;99.90;;;;;;5059570;28;20035;-72
2021/11/11 06:46:09;;;;;;;28.55;12.38;;;11.20;99.90;;;;;;5076573;28;20032;-71
2021/11/11 06:48:36;;;;;;;24.20;12.77;;;11.20;99.90;;;;;;5093309;28;20521;-71
2021/11/11 06:51:02;;;;;;;33.55;14.50;;;11.30;99.90;;;;;;5076310;28;20024;-72
2021/11/11 06:53:28;;;;;;;28.73;13.35;;;11.30;99.90;;;;;;5076055;28;20535;-71
2021/11/11 06:55:54;;;;;;;29.15;12.88;;;11.20;99.90;;;;;;5076178;28;20031;-70
2021/11/11 06:58:22;;;;;;;22.75;12.02;;;11.10;99.90;;;;;;5094146;28;20026;-74
2021/11/11 07:00:52;;;;;;;25.85;12.00;;;11.00;99.90;;;;;;5093467;28;20024;-73
2021/11/11 07:03:18;;;;;;;25.80;12.82;;;11.00;99.90;;;;;;5094349;28;20024;-72
2021/11/11 07:05:45;;;;;;;24.65;12.93;;;10.90;99.90;;;;;;5093902;28;20150;-72
2021/11/11 07:08:13;;;;;;;28.75;13.40;;;11.00;99.90;;;;;;5092770;28;20459;-70
2021/11/11 07:10:42;;;;;;;27.17;12.82;;;10.90;99.90;;;;;;5076029;28;20024;-70
2021/11/11 07:13:08;;;;;;;24.95;13.73;;;10.90;99.90;;;;;;5092787;28;20028;-71
2021/11/11 07:15:35;;;;;;;22.17;11.88;;;10.80;99.90;;;;;;5092556;28;20043;-72
2021/11/11 07:18:01;;;;;;;29.88;12.43;;;10.80;99.90;;;;;;5075650;28;20043;-70
2021/11/11 07:20:27;;;;;;;30.80;13.88;;;10.90;99.90;;;;;;5075389;28;20036;-71
2021/11/11 07:22:59;;;;;;;21.67;11.63;;;10.90;99.90;;;;;;5075549;28;20069;-71
2021/11/11 07:25:24;;;;;;;21.17;12.88;;;10.80;99.90;;;;;;5076662;28;20135;-71
2021/11/11 07:27:50;;;;;;;26.30;13.25;;;10.80;99.90;;;;;;5075633;28;20028;-72
2021/11/11 07:30:17;;;;;;;25.23;12.73;;;10.80;99.90;;;;;;5075860;28;20028;-69
2021/11/11 07:32:43;;;;;;;24.50;12.65;;;10.70;99.90;;;;;;5075494;28;20016;-70
2021/11/11 07:35:10;;;;;;;22.60;12.98;;;10.80;99.90;;;;;;5091979;28;20074;-69
2021/11/11 07:37:46;;;;;;;31.88;13.32;;;10.80;99.90;;;;;;5092384;28;20039;-73
2021/11/11 07:40:15;;;;;;;24.40;13.00;;;10.90;99.90;;;;;;5092310;28;20024;-65
2021/11/11 07:42:42;;;;;;;29.58;13.90;;;10.90;99.90;;;;;;5093407;28;20028;-65
2021/11/11 07:45:08;;;;;;;25.70;13.70;;;11.00;99.90;;;;;;5092328;28;20032;-66
2021/11/11 07:47:34;;;;;;;27.88;13.18;;;11.10;99.90;;;;;;5092135;28;20024;-65
2021/11/11 07:50:03;;;;;;;30.13;15.00;;;11.00;99.90;;;;;;5075238;28;20062;-66
2021/11/11 07:52:29;;;;;;;26.75;12.57;;;11.10;99.90;;;;;;5092177;28;20028;-66
2021/11/11 07:54:56;;;;;;;25.73;13.32;;;11.10;99.90;;;;;;5075098;28;20115;-67
2021/11/11 07:57:24;;;;;;;24.83;13.52;;;11.10;99.90;;;;;;5092063;28;20043;-67
2021/11/11 07:59:51;;;;;;;26.10;13.02;;;11.20;99.90;;;;;;5075235;28;20123;-66
2021/11/11 08:02:17;;;;;;;31.08;13.77;;;11.20;99.90;;;;;;5075250;28;20440;-67
2021/11/11 08:04:44;;;;;;;28.20;14.95;;;11.20;99.90;;;;;;5092054;28;20113;-68
2021/11/11 08:07:09;;;;;;;28.98;15.02;;;11.30;99.90;;;;;;5093521;28;20051;-68
2021/11/11 08:09:35;;;;;;;26.58;14.68;;;11.30;99.90;;;;;;5075285;28;20100;-67
2021/11/11 08:12:01;;;;;;;34.85;14.25;;;11.30;99.90;;;;;;5075110;28;20049;-73
2021/11/11 08:14:26;;;;;;;28.30;14.65;;;11.30;99.90;;;;;;5091903;28;20497;-74
2021/11/11 08:16:53;;;;;;;28.20;14.48;;;11.40;99.90;;;;;;5075018;28;20064;-72
2021/11/11 08:19:19;;;;;;;29.95;13.57;;;11.40;99.90;;;;;;5074866;28;20024;-77
2021/11/11 08:21:44;;;;;;;27.88;15.55;;;11.40;99.90;;;;;;5074892;28;20115;-74
2021/11/11 08:24:10;;;;;;;27.17;14.13;;;11.60;99.90;;;;;;5074794;28;20086;-74
2021/11/11 08:26:36;;;;;;;26.98;13.85;;;11.50;99.90;;;;;;5074913;28;20399;-75
2021/11/11 08:29:02;;;;;;;28.92;14.23;;;11.70;99.90;;;;;;5091696;28;20443;-75
2021/11/11 08:31:28;;;;;;;29.88;14.68;;;11.70;99.90;;;;;;5074745;28;20032;-74
2021/11/11 08:33:53;;;;;;;26.38;13.57;;;11.80;99.90;;;;;;5074775;28;20024;-74
2021/11/11 08:36:19;;;;;;;27.73;14.00;;;11.90;99.90;;;;;;5091872;28;20036;-75
2021/11/11 08:38:46;;;;;;;28.75;13.52;;;11.90;99.90;;;;;;5075058;28;20479;-74
2021/11/11 08:41:11;;;;;;;28.70;14.85;;;12.00;99.90;;;;;;5092066;28;20055;-74
2021/11/11 08:43:38;;;;;;;25.52;14.13;;;12.10;99.90;;;;;;5093561;28;20391;-73
2021/11/11 08:46:04;;;;;;;28.17;14.60;;;12.20;99.90;;;;;;5095121;28;20033;-77
2021/11/11 08:48:30;;;;;;;30.27;15.30;;;12.30;99.90;;;;;;5101380;28;20046;-75
2021/11/11 08:50:56;;;;;;;25.58;13.60;;;12.50;99.90;;;;;;5097793;28;20052;-75
2021/11/11 08:53:22;;;;;;;24.75;14.30;;;12.60;99.90;;;;;;5107946;28;20074;-73
2021/11/11 08:55:48;;;;;;;28.45;15.60;;;12.80;99.90;;;;;;5099062;28;20028;-65
2021/11/11 08:58:14;;;;;;;26.83;14.63;;;12.90;99.90;;;;;;5079660;28;20120;-68
2021/11/11 09:00:49;;;;;;;30.88;13.93;;;13.10;99.90;;;;;;5078605;28;20081;-69
2021/11/11 09:03:15;;;;;;;32.63;16.65;;;13.20;99.90;;;;;;5095272;28;20124;-65
2021/11/11 09:05:41;;;;;;;21.00;14.35;;;13.30;99.90;;;;;;5078309;28;20509;-64
2021/11/11 09:08:08;;;;;;;25.10;14.23;;;13.30;99.90;;;;;;5095059;28;20028;-67
2021/11/11 09:10:39;;;;;;;31.98;14.35;;;13.40;99.90;;;;;;5078455;28;20024;-66
2021/11/11 09:13:05;;;;;;;24.80;13.70;;;13.40;99.90;;;;;;5095126;28;20015;-67
2021/11/11 09:15:30;;;;;;;20.67;13.75;;;13.50;99.90;;;;;;5095092;28;20025;-67
2021/11/11 09:17:59;;;;;;;26.55;15.07;;;13.60;99.90;;;;;;5077876;28;20471;-67
2021/11/11 09:20:27;;;;;;;28.83;14.15;;;13.60;99.90;;;;;;5094702;28;20106;-68
2021/11/11 09:22:54;;;;;;;30.85;14.25;;;13.60;99.90;;;;;;5095010;28;20035;-65
2021/11/11 09:25:22;;;;;;;28.65;15.63;;;13.60;99.90;;;;;;5077456;28;20067;-66
2021/11/11 09:27:48;;;;;;;30.55;15.55;;;13.60;99.90;;;;;;5078172;28;20036;-65
2021/11/11 09:30:18;;;;;;;24.55;15.73;;;13.60;99.90;;;;;;5096099;28;20028;-66
2021/11/11 09:32:45;;;;;;;22.92;14.90;;;13.70;99.90;;;;;;5078501;28;20111;-74
2021/11/11 09:35:10;;;;;;;27.63;16.80;;;13.80;99.90;;;;;;5096270;28;20093;-75
2021/11/11 09:37:37;;;;;;;29.05;15.25;;;13.70;99.90;;;;;;5096855;28;20047;-76
2021/11/11 09:40:10;;;;;;;33.45;17.15;;;13.80;99.90;;;;;;5095519;28;20036;-75
2021/11/11 09:42:36;;;;;;;24.95;14.50;;;14.00;99.90;;;;;;5095035;28;20048;-75
2021/11/11 09:45:03;;;;;;;27.35;15.32;;;14.10;99.90;;;;;;5078177;28;20063;-75
2021/11/11 09:47:31;;;;;;;27.50;15.65;;;14.20;99.90;;;;;;5095149;28;20016;-77
2021/11/11 09:49:57;;;;;;;28.30;16.38;;;14.20;99.90;;;;;;5096145;28;20044;-75
2021/11/11 09:52:23;;;;;;;27.23;15.90;;;14.30;99.90;;;;;;5096100;28;20490;-76
2021/11/11 10:00:17;;;;;;;25.73;15.45;;;14.40;99.90;;;;;;5095753;28;20058;-75
2021/11/11 10:02:43;;;;;;;24.88;15.82;;;14.50;99.90;;;;;;5095716;28;20475;-73
2021/11/11 10:05:10;;;;;;;30.90;17.02;;;14.50;99.90;;;;;;5078255;28;20550;-76
2021/11/11 10:07:35;;;;;;;25.77;16.83;;;14.60;99.90;;;;;;5084258;28;20028;-75
2021/11/11 10:10:01;;;;;;;28.38;16.90;;;14.60;99.90;;;;;;5100798;28;20032;-72
2021/11/11 10:12:27;;;;;;;23.95;16.55;;;14.70;99.90;;;;;;5098472;28;20024;-76
2021/11/11 10:15:06;;;;;;;26.27;16.02;;;14.70;99.90;;;;;;5079647;28;20020;-76
2021/11/11 10:17:42;;;;;;;30.77;16.90;;;14.80;99.90;;;;;;5078354;28;20376;-75
2021/11/11 10:20:09;;;;;;;28.33;16.55;;;14.80;99.90;;;;;;5094593;28;20016;-76
2021/11/11 10:22:36;;;;;;;30.13;17.55;;;14.90;99.90;;;;;;5095816;28;20077;-70
2021/11/11 10:25:06;;;;;;;28.92;16.55;;;14.80;99.90;;;;;;5094497;28;20122;-78
2021/11/11 10:27:47;;;;;;;30.40;17.38;;;14.80;99.90;;;;;;5096109;28;20036;-76
2021/11/11 10:30:18;;;;;;;32.42;19.02;;;14.80;99.90;;;;;;5095831;28;20103;-76
2021/11/11 10:32:51;;;;;;;32.72;18.63;;;14.80;99.90;;;;;;5103146;28;20039;-80
2021/11/11 10:35:28;;;;;;;33.97;18.15;;;14.90;99.90;;;;;;5091765;28;20094;-80
2021/11/11 10:37:57;;;;;;;30.67;17.60;;;14.90;99.90;;;;;;5105299;28;20031;-75
2021/11/11 10:40:22;;;;;;;32.08;17.77;;;14.90;99.90;;;;;;5109255;28;20016;-75
2021/11/11 10:42:50;;;;;;;28.85;17.80;;;14.90;99.90;;;;;;5108355;28;20043;-72
2021/11/11 10:45:19;;;;;;;31.85;18.58;;;14.70;99.90;;;;;;5105837;28;20090;-71
2021/11/11 10:47:48;;;;;;;29.10;17.73;;;14.70;99.90;;;;;;5105816;28;20035;-65
2021/11/11 10:50:19;;;;;;;28.50;17.77;;;14.70;99.90;;;;;;5104912;28;20486;-72
2021/11/11 10:52:49;;;;;;;31.58;19.23;;;14.70;99.90;;;;;;5102679;28;20533;-67
2021/11/11 10:55:34;;;;;;;34.25;17.85;;;14.60;99.90;;;;;;5080204;28;20379;-69
2021/11/11 10:58:12;;;;;;;41.50;19.25;;;14.60;99.90;;;;;;5097604;28;20122;-67
2021/11/11 11:00:52;;;;;;;30.65;18.40;;;14.60;99.90;;;;;;5100695;28;20494;-74
2021/11/11 11:03:22;;;;;;;34.88;19.05;;;14.70;99.90;;;;;;5111178;28;20028;-78
2021/11/11 11:05:55;;;;;;;32.00;18.55;;;14.70;99.90;;;;;;5112006;28;20028;-76
2021/11/11 11:08:39;;;;;;;33.75;18.58;;;14.90;99.90;;;;;;5093750;28;20084;-70
2021/11/11 11:11:07;;;;;;;33.70;17.63;;;14.90;99.90;;;;;;5094936;28;20035;-82
2021/11/11 11:13:39;;;;;;;33.28;18.52;;;15.00;99.90;;;;;;5110359;28;20016;-77
2021/11/11 11:16:06;;;;;;;28.70;16.63;;;15.00;99.90;;;;;;5091906;28;20068;-82
2021/11/11 11:18:44;;;;;;;38.13;19.15;;;15.10;99.90;;;;;;5111286;28;20072;-75
2021/11/11 11:21:23;;;;;;;27.50;17.25;;;15.20;99.90;;;;;;5092869;28;20119;-75
2021/11/11 11:23:51;;;;;;;36.97;19.15;;;15.30;99.90;;;;;;5094317;28;20024;-72
2021/11/11 11:26:21;;;;;;;29.52;17.00;;;15.40;99.90;;;;;;5109836;28;20048;-82
2021/11/11 11:29:17;;;;;;;36.25;19.67;;;15.50;99.90;;;;;;5094761;28;20077;-82
2021/11/11 11:31:48;;;;;;;27.45;17.70;;;15.50;99.90;;;;;;5096181;28;20051;-78
2021/11/11 11:34:20;;;;;;;36.38;19.80;;;15.50;99.90;;;;;;5094491;28;20016;-73
2021/11/11 11:36:58;;;;;;;35.47;18.70;;;15.50;99.90;;;;;;5095381;28;20024;-77
2021/11/11 11:39:40;;;;;;;35.78;19.35;;;15.60;99.90;;;;;;5078126;28;20059;-78
2021/11/11 11:42:11;;;;;;;34.25;20.05;;;15.60;99.90;;;;;;5095078;28;20081;-74
2021/11/11 11:44:48;;;;;;;44.97;22.65;;;15.60;99.90;;;;;;5095485;28;20016;-77
2021/11/11 11:47:20;;;;;;;37.53;20.38;;;15.60;99.90;;;;;;5095303;28;20043;-76
2021/11/11 11:49:52;;;;;;;48.00;21.17;;;15.50;99.90;;;;;;5095315;28;20073;-76
2021/11/11 11:52:18;;;;;;;40.50;22.08;;;15.50;99.90;;;;;;5093714;28;20020;-75
2021/11/11 11:54:50;;;;;;;38.00;20.15;;;15.50;99.90;;;;;;5095201;28;20052;-76
2021/11/11 11:57:43;;;;;;;44.45;20.35;;;15.50;99.90;;;;;;5096161;28;20020;-78
2021/11/11 12:00:10;;;;;;;43.40;21.95;;;15.60;99.90;;;;;;5095090;28;20032;-78
2021/11/11 12:05:33;;;;;;;43.58;22.05;;;15.70;99.90;;;;;;5092424;28;20132;-68
2021/11/11 12:08:10;;;;;;;42.92;21.35;;;15.60;99.90;;;;;;5092313;28;20024;-72
2021/11/11 12:10:56;;;;;;;45.47;24.00;;;15.60;99.90;;;;;;5076783;28;20398;-69
2021/11/11 12:39:38;;;;;;;40.53;22.73;;;16.80;99.90;;;;;;5097379;28;20363;-68
2021/11/11 12:42:34;;;;;;;38.63;21.30;;;16.80;99.90;;;;;;5079093;28;20028;-68
2021/11/11 12:45:10;;;;;;;41.15;22.33;;;16.90;99.90;;;;;;5095839;28;20016;-67
2021/11/11 12:47:58;;;;;;;41.53;23.23;;;16.90;99.90;;;;;;5096409;28;20115;-67
2021/11/11 12:50:46;;;;;;;40.50;22.77;;;16.80;99.90;;;;;;5083144;28;20036;-67
2021/11/11 12:53:15;;;;;;;41.55;21.90;;;16.80;99.90;;;;;;5103201;28;20387;-74
2021/11/11 12:56:00;;;;;;;43.53;22.17;;;16.70;99.90;;;;;;5104151;28;20024;-73
2021/11/11 12:58:32;;;;;;;37.80;22.23;;;16.60;99.90;;;;;;5100381;28;20031;-75
2021/11/11 13:01:00;;;;;;;40.78;22.38;;;16.50;99.90;;;;;;5097373;28;20071;-75
2021/11/11 13:03:49;;;;;;;43.63;22.88;;;16.40;99.90;;;;;;5098873;28;20020;-74
2021/11/11 13:06:41;;;;;;;41.47;23.63;;;16.30;99.90;;;;;;5097203;28;20455;-75
2021/11/11 13:09:22;;;;;;;47.35;21.70;;;16.20;99.90;;;;;;5098943;28;20054;-74
2021/11/11 13:11:56;;;;;;;46.08;24.05;;;16.10;99.90;;;;;;5097829;28;20024;-76
2021/11/11 13:14:22;;;;;;;;;;;16.00;99.90;;;;;;5097088;28;20413;-72
2021/11/11 13:16:53;;;;;;;46.45;23.38;;;15.80;99.90;;;;;;5098923;28;19911;-76
2021/11/11 13:19:40;;;;;;;50.50;27.05;;;15.60;99.90;;;;;;5097848;28;20026;-77
2021/11/11 15:14:47;;;;;;;42.88;24.50;;;14.50;99.90;;;;;;5094954;28;20047;-71
2021/11/11 16:20:24;;;;;;;35.03;22.00;;;13.80;99.90;;;;;;5077859;28;20054;-68
2021/11/11 16:25:44;;;;;;;38.38;20.80;;;13.80;99.90;;;;;;5092826;28;20052;-68